createdAt,value
2022-08-17T00:00:34.925Z,17.72
2022-08-17T00:05:51.538Z,17.70
2022-08-17T00:10:54.757Z,17.61
2022-08-17T00:16:03.493Z,17.52
2022-08-17T00:21:10.730Z,17.48
2022-08-17T00:26:14.320Z,17.40
2022-08-17T00:31:16.547Z,17.19
2022-08-17T00:36:18.730Z,17.06
2022-08-17T00:41:24.099Z,16.95
2022-08-17T00:46:36.050Z,16.89
2022-08-17T00:51:44.670Z,16.78
2022-08-17T00:56:51.285Z,16.71
2022-08-17T01:01:55.722Z,16.61
2022-08-17T01:07:01.098Z,16.46
2022-08-17T01:12:05.482Z,16.33
2022-08-17T01:17:08.336Z,16.24
2022-08-17T01:22:14.347Z,16.12
2022-08-17T01:27:18.458Z,15.95
2022-08-17T01:32:22.474Z,15.79
2022-08-17T01:37:32.278Z,15.67
2022-08-17T01:42:40.501Z,15.55
2022-08-17T01:47:42.546Z,15.44
2022-08-17T01:52:46.713Z,15.30
2022-08-17T01:57:48.610Z,15.21
2022-08-17T02:02:50.605Z,15.43
2022-08-17T02:08:00.613Z,15.35
2022-08-17T02:13:04.470Z,15.19
2022-08-17T02:18:07.584Z,15.05
2022-08-17T02:23:11.198Z,14.99
2022-08-17T02:28:13.742Z,14.89
2022-08-17T02:33:17.793Z,14.80
2022-08-17T02:38:22.265Z,14.79
2022-08-17T02:43:24.379Z,14.70
2022-08-17T02:48:31.149Z,14.58
2022-08-17T02:53:35.972Z,14.59
2022-08-17T02:58:38.377Z,14.50
2022-08-17T03:03:40.365Z,14.42
2022-08-17T03:08:42.304Z,14.31
2022-08-17T03:13:44.151Z,14.21
2022-08-17T03:18:49.103Z,14.18
2022-08-17T03:23:54.444Z,14.10
2022-08-17T03:28:57.510Z,14.01
2022-08-17T03:33:59.508Z,13.98
2022-08-17T03:39:01.783Z,13.92
2022-08-17T03:44:04.584Z,13.82
2022-08-17T03:49:27.927Z,13.81
2022-08-17T03:54:48.198Z,13.72
2022-08-17T03:59:50.133Z,13.67
2022-08-17T04:04:52.649Z,13.72
2022-08-17T04:09:54.845Z,13.76
2022-08-17T04:14:57.031Z,13.75
2022-08-17T04:19:58.933Z,13.72
2022-08-17T04:25:15.578Z,13.76
2022-08-17T04:30:17.529Z,13.80
2022-08-17T04:35:25.548Z,13.87
2022-08-17T04:40:46.994Z,14.03
2022-08-17T04:45:58.045Z,14.17
2022-08-17T04:51:00.219Z,14.23
2022-08-17T04:56:03.568Z,14.38
2022-08-17T05:01:06.060Z,14.60
2022-08-17T05:06:08.943Z,14.81
2022-08-17T05:11:10.975Z,15.06
2022-08-17T05:16:13.046Z,15.31
2022-08-17T05:21:15.729Z,15.53
2022-08-17T05:26:26.736Z,15.73
2022-08-17T05:31:29.719Z,15.88
2022-08-17T05:36:41.962Z,15.98
2022-08-17T05:41:48.214Z,16.21
2022-08-17T05:46:54.255Z,16.47
2022-08-17T05:51:59.120Z,16.77
2022-08-17T05:57:21.007Z,17.05
2022-08-17T06:02:56.731Z,17.28
2022-08-17T06:08:17.809Z,17.57
2022-08-17T06:13:31.845Z,17.89
2022-08-17T06:18:43.497Z,18.19
2022-08-17T06:23:48.218Z,18.39
2022-08-17T06:29:27.573Z,18.64
2022-08-17T06:34:29.973Z,18.88
2022-08-17T06:39:37.999Z,19.00
2022-08-17T06:44:52.002Z,19.21
2022-08-17T06:50:05.589Z,19.44
2022-08-17T06:55:24.089Z,19.77
2022-08-17T07:00:36.614Z,20.09
2022-08-17T07:05:46.208Z,20.22
2022-08-17T07:10:56.319Z,20.21
2022-08-17T07:16:13.237Z,20.33
2022-08-17T07:21:55.087Z,20.59
2022-08-17T07:27:13.232Z,21.03
2022-08-17T07:32:20.215Z,21.48
2022-08-17T07:37:22.051Z,21.86
2022-08-17T07:42:24.013Z,22.26
2022-08-17T07:47:55.160Z,22.62
2022-08-17T07:52:57.232Z,22.83
2022-08-17T07:58:00.245Z,23.15
2022-08-17T08:03:17.425Z,23.49
2022-08-17T08:08:28.561Z,23.76
2022-08-17T08:13:32.455Z,24.09
2022-08-17T08:18:54.843Z,24.35
2022-08-17T08:24:10.093Z,24.65
2022-08-17T08:29:32.620Z,25.06
2022-08-17T08:34:58.788Z,25.45
2022-08-17T08:40:25.771Z,25.73
2022-08-17T08:46:00.902Z,26.17
2022-08-17T08:51:20.423Z,26.68
2022-08-17T08:56:35.724Z,27.05
2022-08-17T09:01:51.261Z,26.83
2022-08-17T09:07:02.318Z,27.25
2022-08-17T09:12:29.268Z,27.53
2022-08-17T09:17:47.181Z,27.52
2022-08-17T09:22:56.686Z,27.81
2022-08-17T09:28:02.168Z,27.62
2022-08-17T09:33:08.634Z,27.59
2022-08-17T09:38:16.549Z,28.37
2022-08-17T09:43:24.981Z,28.74
2022-08-17T09:48:40.435Z,29.29
2022-08-17T09:53:44.723Z,29.52
2022-08-17T09:58:47.742Z,29.60
2022-08-17T10:04:08.322Z,29.83
2022-08-17T10:09:44.625Z,30.06
2022-08-17T10:15:08.134Z,30.34
2022-08-17T10:20:14.349Z,30.58
2022-08-17T10:25:56.055Z,31.15
2022-08-17T10:31:34.292Z,31.72
2022-08-17T10:36:30.033Z,31.22
2022-08-17T10:41:41.615Z,31.48
2022-08-17T10:47:13.821Z,31.77
2022-08-17T10:52:27.919Z,31.52
2022-08-17T10:57:29.801Z,32.18
2022-08-17T11:02:41.358Z,32.28
2022-08-17T11:08:27.378Z,31.62
2022-08-17T11:13:41.338Z,33.27
2022-08-17T11:19:08.513Z,36.62
2022-08-17T11:24:19.156Z,38.67
2022-08-17T11:29:24.706Z,37.51
2022-08-17T11:34:30.325Z,32.16
2022-08-17T11:40:06.730Z,31.42
2022-08-17T11:45:40.279Z,36.08
2022-08-17T11:51:13.275Z,39.20
2022-08-17T11:56:35.286Z,40.38
2022-08-17T12:01:57.120Z,40.72
2022-08-17T12:06:59.870Z,43.17
2022-08-17T12:12:22.733Z,44.24
2022-08-17T12:17:41.272Z,43.36
2022-08-17T12:23:01.234Z,44.35
2022-08-17T12:28:06.183Z,46.03
2022-08-17T12:33:25.211Z,45.16
2022-08-17T12:38:36.128Z,44.87
2022-08-17T12:43:38.101Z,41.72
2022-08-17T12:48:39.925Z,38.15
2022-08-17T12:54:02.299Z,40.38
2022-08-17T12:59:04.197Z,43.42
2022-08-17T13:04:06.797Z,39.03
2022-08-17T13:09:12.510Z,39.71
2022-08-17T13:14:18.347Z,43.15
2022-08-17T13:19:39.723Z,44.59
2022-08-17T13:25:00.835Z,44.94
2022-08-17T13:30:11.709Z,46.52
2022-08-17T13:35:38.897Z,44.38
2022-08-17T13:40:53.462Z,46.74
2022-08-17T13:46:08.886Z,46.39
2022-08-17T13:51:19.841Z,49.15
2022-08-17T13:56:38.250Z,48.28
2022-08-17T14:01:53.628Z,47.33
2022-08-17T14:07:04.194Z,44.73
2022-08-17T14:12:11.372Z,46.90
2022-08-17T14:17:13.597Z,46.62
2022-08-17T14:22:27.664Z,48.35
2022-08-17T14:27:52.496Z,50.59
2022-08-17T14:32:56.502Z,48.39
2022-08-17T14:37:58.776Z,49.28
2022-08-17T14:43:01.390Z,46.20
2022-08-17T14:48:09.514Z,44.56
2022-08-17T14:53:14.318Z,47.38
2022-08-17T14:58:16.139Z,45.40
2022-08-17T15:03:18.733Z,43.36
2022-08-17T15:08:20.593Z,40.02
2022-08-17T15:13:25.494Z,39.58
2022-08-17T15:18:27.331Z,37.52
2022-08-17T15:23:29.178Z,35.13
2022-08-17T15:28:31.162Z,34.92
2022-08-17T15:33:33.133Z,34.11
2022-08-17T15:38:39.360Z,32.96
2022-08-17T15:43:42.789Z,32.36
2022-08-17T15:48:47.855Z,32.09
2022-08-17T15:53:56.128Z,31.31
2022-08-17T15:58:59.886Z,30.93
2022-08-17T16:04:06.655Z,31.09
2022-08-17T16:09:09.349Z,31.27
2022-08-17T16:14:11.155Z,31.00
2022-08-17T16:19:16.314Z,30.56
2022-08-17T16:24:18.129Z,30.36
2022-08-17T16:29:19.922Z,30.26
2022-08-17T16:34:22.257Z,30.05
2022-08-17T16:39:26.762Z,29.67
2022-08-17T16:44:30.678Z,29.02
2022-08-17T16:49:36.832Z,28.74
2022-08-17T16:54:43.830Z,28.70
2022-08-17T16:59:50.303Z,28.57
2022-08-17T17:05:02.624Z,28.33
2022-08-17T17:10:18.188Z,27.88
2022-08-17T17:15:22.329Z,27.56
2022-08-17T17:20:36.567Z,27.23
2022-08-17T17:25:57.323Z,27.01
2022-08-17T17:31:23.823Z,26.72
2022-08-17T17:36:35.527Z,26.46
2022-08-17T17:41:47.207Z,26.27
2022-08-17T17:46:54.519Z,26.02
2022-08-17T17:52:10.947Z,25.81
2022-08-17T17:57:56.511Z,25.61
2022-08-17T18:03:33.728Z,25.44
2022-08-17T18:08:45.766Z,25.19
2022-08-17T18:14:15.579Z,25.00
2022-08-17T18:19:20.731Z,24.80
2022-08-17T18:24:32.188Z,24.57
2022-08-17T18:29:40.007Z,24.28
2022-08-17T18:34:48.229Z,23.89
2022-08-17T18:39:50.637Z,23.51
2022-08-17T18:44:55.262Z,23.30
2022-08-17T18:50:27.518Z,23.18
2022-08-17T18:55:30.343Z,23.00
2022-08-17T19:00:41.489Z,22.70
2022-08-17T19:05:45.394Z,22.40
2022-08-17T19:10:50.406Z,22.18
2022-08-17T19:16:14.149Z,21.98
2022-08-17T19:21:30.517Z,21.71
2022-08-17T19:26:55.381Z,21.48
2022-08-17T19:31:59.063Z,21.23
2022-08-17T19:37:23.621Z,21.09
2022-08-17T19:42:53.062Z,20.97
2022-08-17T19:48:25.612Z,20.96
2022-08-17T19:54:04.848Z,20.74
2022-08-17T19:59:07.293Z,20.52
2022-08-17T20:04:32.976Z,20.33
2022-08-17T20:09:39.003Z,20.19
2022-08-17T20:14:55.363Z,20.10
2022-08-17T20:20:20.226Z,20.00
2022-08-17T20:25:39.322Z,19.83
2022-08-17T20:30:42.974Z,19.66
2022-08-17T20:36:03.312Z,19.58
2022-08-17T20:41:10.245Z,19.65
2022-08-17T20:46:41.115Z,19.56
2022-08-17T20:52:07.802Z,19.31
2022-08-17T20:57:30.415Z,19.13
2022-08-17T21:02:33.095Z,19.10
2022-08-17T21:07:43.131Z,19.03
2022-08-17T21:12:48.670Z,18.88
2022-08-17T21:18:23.363Z,18.74
2022-08-17T21:23:50.916Z,18.74
2022-08-17T21:29:31.286Z,18.60
2022-08-17T21:34:39.795Z,18.56
2022-08-17T21:40:11.325Z,18.50
2022-08-17T21:45:41.114Z,18.40
2022-08-17T21:50:57.915Z,18.30
2022-08-17T21:55:59.986Z,18.16
2022-08-17T22:01:26.061Z,18.06
2022-08-17T22:06:27.953Z,17.98
2022-08-17T22:11:29.854Z,17.91
2022-08-17T22:16:31.966Z,17.84
2022-08-17T22:21:33.877Z,17.80
2022-08-17T22:27:00.780Z,17.72
2022-08-17T22:32:02.691Z,17.77
2022-08-17T22:37:28.914Z,17.79
2022-08-17T22:42:31.300Z,17.87
2022-08-17T22:47:41.077Z,17.94
2022-08-17T22:53:15.563Z,18.09
2022-08-17T22:58:43.320Z,18.15
2022-08-17T23:04:04.703Z,18.04
2022-08-17T23:09:07.237Z,17.94
2022-08-17T23:14:12.199Z,17.98
2022-08-17T23:19:17.622Z,18.04
2022-08-17T23:24:25.829Z,17.86
2022-08-17T23:29:29.370Z,17.78
2022-08-17T23:34:31.586Z,17.73
2022-08-17T23:39:33.978Z,17.67
2022-08-17T23:44:38.101Z,17.70
2022-08-17T23:49:41.394Z,17.68
2022-08-17T23:54:46.648Z,17.65
2022-08-17T23:59:49.090Z,17.56
